createdAt,value
2023-04-23T00:02:00.552Z,0.60
2023-04-23T00:04:29.383Z,0.73
2023-04-23T00:07:00.885Z,0.63
2023-04-23T00:09:32.581Z,0.50
2023-04-23T00:12:00.940Z,0.65
2023-04-23T00:14:27.950Z,1.00
2023-04-23T00:19:49.978Z,0.77
2023-04-23T00:22:20.511Z,0.65
2023-04-23T00:24:47.136Z,0.95
2023-04-23T00:27:14.953Z,0.98
2023-04-23T00:29:46.285Z,0.80
2023-04-23T00:40:54.608Z,0.52
2023-04-23T00:43:21.500Z,0.40
2023-04-23T00:45:49.090Z,0.60
2023-04-23T00:48:18.686Z,0.68
2023-04-23T00:50:54.420Z,0.60
2023-04-23T00:53:24.644Z,1.02
2023-04-23T00:55:51.683Z,1.15
2023-04-23T00:58:18.595Z,0.82
2023-04-23T01:00:48.537Z,0.98
2023-04-23T01:03:18.485Z,0.88
2023-04-23T01:05:45.690Z,1.08
2023-04-23T01:08:15.948Z,0.83
2023-04-23T01:10:46.259Z,0.85
2023-04-23T01:13:16.556Z,1.02
2023-04-23T01:15:44.973Z,0.95
2023-04-23T01:18:12.754Z,1.00
2023-04-23T01:20:39.590Z,1.00
2023-04-23T01:23:07.168Z,1.15
2023-04-23T01:25:35.155Z,0.90
2023-04-23T01:28:07.821Z,1.52
2023-04-23T01:30:35.259Z,0.90
2023-04-23T01:33:03.278Z,0.95
2023-04-23T01:35:36.037Z,0.93
2023-04-23T01:38:09.500Z,1.20
2023-04-23T01:40:36.754Z,1.42
2023-04-23T01:43:04.506Z,0.90
2023-04-23T01:45:31.854Z,1.00
2023-04-23T01:48:00.353Z,0.85
2023-04-23T01:50:27.892Z,1.13
2023-04-23T01:52:54.554Z,1.33
2023-04-23T01:55:21.345Z,0.88
2023-04-23T01:57:48.175Z,1.00
2023-04-23T02:00:15.942Z,1.13
2023-04-23T02:02:44.146Z,1.17
2023-04-23T02:05:14.121Z,0.93
2023-04-23T02:07:41.168Z,1.10
2023-04-23T02:10:08.680Z,1.25
2023-04-23T02:12:37.199Z,1.07
2023-04-23T02:15:05.171Z,0.93
2023-04-23T02:17:31.971Z,1.73
2023-04-23T02:19:58.689Z,0.80
2023-04-23T02:22:26.427Z,0.77
2023-04-23T02:24:54.092Z,0.90
2023-04-23T02:27:21.636Z,0.90
2023-04-23T02:29:49.094Z,1.08
2023-04-23T02:32:16.115Z,0.95
2023-04-23T02:34:43.188Z,0.82
2023-04-23T02:37:10.395Z,1.00
2023-04-23T02:39:39.080Z,1.13
2023-04-23T02:42:06.136Z,0.75
2023-04-23T02:44:33.077Z,1.00
2023-04-23T02:47:00.015Z,0.95
2023-04-23T02:49:26.974Z,1.10
2023-04-23T02:51:53.607Z,0.60
2023-04-23T02:54:20.390Z,0.90
2023-04-23T02:56:47.024Z,0.85
2023-04-23T02:59:13.883Z,0.77
2023-04-23T03:01:41.363Z,1.17
2023-04-23T03:04:12.377Z,0.70
2023-04-23T03:06:39.453Z,1.02
2023-04-23T03:09:06.648Z,1.33
2023-04-23T03:11:34.248Z,1.08
2023-04-23T03:14:01.007Z,1.03
2023-04-23T03:16:29.173Z,0.73
2023-04-23T03:18:56.090Z,1.30
2023-04-23T03:21:22.878Z,0.88
2023-04-23T03:23:49.716Z,1.27
2023-04-23T03:26:16.343Z,1.03
2023-04-23T03:28:43.135Z,1.08
2023-04-23T03:31:10.126Z,0.65
2023-04-23T03:33:37.361Z,0.80
2023-04-23T03:36:07.218Z,1.20
2023-04-23T03:38:34.415Z,1.20
2023-04-23T03:41:01.107Z,0.83
2023-04-23T03:43:27.893Z,1.13
2023-04-23T03:45:54.595Z,0.95
2023-04-23T03:48:21.723Z,0.68
2023-04-23T03:50:48.510Z,0.87
2023-04-23T03:53:15.269Z,1.05
2023-04-23T03:55:41.940Z,0.70
2023-04-23T03:58:09.660Z,0.80
2023-04-23T04:00:36.702Z,0.90
2023-04-23T04:03:04.256Z,1.00
2023-04-23T04:05:31.158Z,0.80
2023-04-23T04:07:57.805Z,0.88
2023-04-23T04:10:24.675Z,1.10
2023-04-23T04:12:51.388Z,1.20
2023-04-23T04:15:20.313Z,0.88
2023-04-23T04:17:47.374Z,1.10
2023-04-23T04:20:16.403Z,1.00
2023-04-23T04:22:43.065Z,1.20
2023-04-23T04:25:10.158Z,0.65
2023-04-23T04:27:37.555Z,1.20
2023-04-23T04:30:05.542Z,0.88
2023-04-23T04:32:32.691Z,1.27
2023-04-23T04:35:00.095Z,1.48
2023-04-23T04:37:28.072Z,1.27
2023-04-23T04:39:55.493Z,0.93
2023-04-23T04:42:22.236Z,1.42
2023-04-23T04:44:48.891Z,0.98
2023-04-23T04:47:16.295Z,0.90
2023-04-23T04:49:43.025Z,1.15
2023-04-23T04:52:09.820Z,0.93
2023-04-23T04:54:36.557Z,1.13
2023-04-23T04:57:03.498Z,1.08
2023-04-23T04:59:30.160Z,0.83
2023-04-23T05:01:58.310Z,1.00
2023-04-23T05:04:25.270Z,0.60
2023-04-23T05:06:51.960Z,1.15
2023-04-23T05:09:18.575Z,1.02
2023-04-23T05:11:49.648Z,0.88
2023-04-23T05:14:16.606Z,0.98
2023-04-23T05:16:43.263Z,1.15
2023-04-23T05:19:10.685Z,0.80
2023-04-23T05:21:37.452Z,0.80
2023-04-23T05:24:04.274Z,0.82
2023-04-23T05:26:33.015Z,1.08
2023-04-23T05:28:59.704Z,1.20
2023-04-23T05:31:28.833Z,1.05
2023-04-23T05:33:56.757Z,1.02
2023-04-23T05:36:23.422Z,0.95
2023-04-23T05:38:52.383Z,1.10
2023-04-23T05:41:19.034Z,0.98
2023-04-23T05:43:48.822Z,0.82
2023-04-23T05:46:16.705Z,0.88
2023-04-23T05:48:43.579Z,0.90
2023-04-23T05:51:11.516Z,0.90
2023-04-23T05:53:38.123Z,0.90
2023-04-23T05:56:05.605Z,1.27
2023-04-23T05:58:32.260Z,0.90
2023-04-23T06:00:58.905Z,0.77
2023-04-23T06:03:26.776Z,0.90
2023-04-23T06:05:53.743Z,0.82
2023-04-23T06:08:20.458Z,0.70
2023-04-23T06:10:47.552Z,1.00
2023-04-23T06:13:17.943Z,0.75
2023-04-23T06:15:45.651Z,0.90
2023-04-23T06:18:12.690Z,0.65
2023-04-23T06:20:39.445Z,0.90
2023-04-23T06:23:06.538Z,0.60
2023-04-23T06:25:33.162Z,0.65
2023-04-23T06:27:59.875Z,0.70
2023-04-23T06:30:26.553Z,0.70
2023-04-23T06:32:54.736Z,0.70
2023-04-23T06:35:21.631Z,0.60
2023-04-23T06:37:48.346Z,0.60
2023-04-23T06:40:15.083Z,0.70
2023-04-23T06:42:41.771Z,0.70
2023-04-23T06:45:08.834Z,0.90
2023-04-23T06:47:35.561Z,1.00
2023-04-23T06:50:02.254Z,0.80
2023-04-23T06:52:30.403Z,0.80
2023-04-23T06:54:57.075Z,0.65
2023-04-23T06:57:23.726Z,0.63
2023-04-23T06:59:51.425Z,0.82
2023-04-23T07:02:18.084Z,0.40
2023-04-23T07:04:45.534Z,0.65
2023-04-23T07:07:12.470Z,0.50
2023-04-23T07:09:39.299Z,0.80
2023-04-23T07:12:05.984Z,0.68
2023-04-23T07:14:36.345Z,0.80
2023-04-23T07:17:03.154Z,0.90
2023-04-23T07:19:31.009Z,0.80
2023-04-23T07:21:57.656Z,0.82
2023-04-23T07:24:26.356Z,0.60
2023-04-23T07:26:53.514Z,0.87
2023-04-23T07:29:20.388Z,1.07
2023-04-23T07:31:49.484Z,0.75
2023-04-23T07:34:16.257Z,0.95
2023-04-23T07:36:42.936Z,0.73
2023-04-23T07:39:09.731Z,0.85
2023-04-23T07:41:39.484Z,0.70
2023-04-23T07:44:06.689Z,0.80
2023-04-23T07:46:34.327Z,0.90
2023-04-23T07:49:01.167Z,0.80
2023-04-23T07:51:28.443Z,0.80
2023-04-23T07:53:58.316Z,0.95
2023-04-23T07:56:26.517Z,0.70
2023-04-23T07:58:54.124Z,0.80
2023-04-23T08:01:23.408Z,0.70
2023-04-23T08:03:50.623Z,0.70
2023-04-23T08:06:18.544Z,0.90
2023-04-23T08:08:45.487Z,0.60
2023-04-23T08:11:13.018Z,0.60
2023-04-23T08:13:39.629Z,0.85
2023-04-23T08:16:07.095Z,0.70
2023-04-23T08:18:34.779Z,0.85
2023-04-23T08:21:04.698Z,0.85
2023-04-23T08:23:31.631Z,0.80
2023-04-23T08:25:58.298Z,0.70
2023-04-23T08:28:26.818Z,1.10
2023-04-23T08:30:53.814Z,0.60
2023-04-23T08:33:21.341Z,0.90
2023-04-23T08:35:49.844Z,0.82
2023-04-23T08:38:16.524Z,0.73
2023-04-23T08:40:46.212Z,0.95
2023-04-23T08:43:33.641Z,0.60
2023-04-23T08:46:06.426Z,0.60
2023-04-23T08:48:34.536Z,0.90
2023-04-23T08:51:06.550Z,0.70
2023-04-23T08:53:33.456Z,0.70
2023-04-23T08:56:03.164Z,0.90
2023-04-23T08:58:31.153Z,0.88
2023-04-23T09:01:00.768Z,0.63
2023-04-23T09:03:29.104Z,0.98
2023-04-23T09:05:56.438Z,0.90
2023-04-23T09:08:23.431Z,0.80
2023-04-23T09:10:52.486Z,0.63
2023-04-23T09:13:19.346Z,0.73
2023-04-23T09:15:50.807Z,0.88
2023-04-23T09:18:18.949Z,0.90
2023-04-23T09:20:45.993Z,0.70
2023-04-23T09:23:16.312Z,0.80
2023-04-23T09:25:43.018Z,0.85
2023-04-23T09:28:10.937Z,0.70
2023-04-23T09:30:45.053Z,0.75
2023-04-23T09:33:12.955Z,0.77
2023-04-23T09:35:42.073Z,0.60
2023-04-23T09:38:11.342Z,0.75
2023-04-23T09:40:38.747Z,0.60
2023-04-23T09:43:07.324Z,0.70
2023-04-23T09:45:35.389Z,0.80
2023-04-23T09:48:04.746Z,1.00
2023-04-23T09:50:40.894Z,0.80
2023-04-23T09:53:09.309Z,0.73
2023-04-23T09:55:42.741Z,0.85
2023-04-23T09:58:15.437Z,0.70
2023-04-23T10:00:42.835Z,0.82
2023-04-23T10:03:10.956Z,0.75
2023-04-23T10:05:59.726Z,0.90
2023-04-23T10:08:28.071Z,0.60
2023-04-23T10:11:09.420Z,0.77
2023-04-23T10:13:42.172Z,0.67
2023-04-23T10:16:21.691Z,0.55
2023-04-23T10:18:54.187Z,0.63
2023-04-23T10:21:34.054Z,0.50
2023-04-23T10:24:08.372Z,0.60
2023-04-23T10:26:36.046Z,0.60
2023-04-23T10:29:05.092Z,0.70
2023-04-23T10:31:33.800Z,0.77
2023-04-23T10:34:05.899Z,0.60
2023-04-23T10:36:33.968Z,0.70
2023-04-23T10:39:04.125Z,0.77
2023-04-23T10:41:37.611Z,0.70
2023-04-23T10:44:12.400Z,0.50
2023-04-23T10:46:39.765Z,0.85
2023-04-23T10:49:07.661Z,0.65
2023-04-23T10:54:11.172Z,0.50
2023-04-23T10:56:39.573Z,0.50
2023-04-23T10:59:29.736Z,0.75
2023-04-23T11:02:00.681Z,0.68
2023-04-23T11:04:31.477Z,0.50
2023-04-23T11:07:10.502Z,0.85
2023-04-23T11:09:42.622Z,0.40
2023-04-23T11:12:31.224Z,0.90
2023-04-23T11:15:02.224Z,0.50
2023-04-23T11:17:36.260Z,0.70
2023-04-23T11:20:24.278Z,0.88
2023-04-23T11:22:53.034Z,0.60
2023-04-23T11:25:22.197Z,0.70
2023-04-23T11:27:55.418Z,0.60
2023-04-23T11:30:30.063Z,0.50
2023-04-23T11:32:59.796Z,0.75
2023-04-23T11:35:34.596Z,0.63
2023-04-23T11:38:01.578Z,0.70
2023-04-23T11:40:31.385Z,0.88
2023-04-23T11:42:59.045Z,0.50
2023-04-23T11:45:26.805Z,0.60
2023-04-23T11:47:56.142Z,0.60
2023-04-23T11:50:36.615Z,0.60
2023-04-23T11:53:08.996Z,0.88
2023-04-23T11:55:39.647Z,0.75
2023-04-23T11:58:06.307Z,0.68
2023-04-23T12:00:33.185Z,0.52
2023-04-23T12:03:06.900Z,0.70
2023-04-23T12:05:36.839Z,0.60
2023-04-23T12:08:17.679Z,0.50
2023-04-23T12:10:46.339Z,0.60
2023-04-23T12:13:24.388Z,0.52
2023-04-23T12:15:56.572Z,0.52
2023-04-23T12:18:35.573Z,0.70
2023-04-23T12:21:20.450Z,0.50
2023-04-23T12:23:55.242Z,0.40
2023-04-23T12:26:22.022Z,0.50
2023-04-23T12:28:51.911Z,0.80
2023-04-23T12:31:23.315Z,0.40
2023-04-23T12:34:03.826Z,0.30
2023-04-23T12:36:31.834Z,0.37
2023-04-23T12:39:23.604Z,0.70
2023-04-23T12:41:55.200Z,0.70
2023-04-23T12:44:22.755Z,0.50
2023-04-23T12:46:58.020Z,0.38
2023-04-23T12:49:29.206Z,0.38
2023-04-23T12:52:02.855Z,0.50
2023-04-23T12:54:37.146Z,0.40
2023-04-23T12:57:05.475Z,0.40
2023-04-23T12:59:32.373Z,0.30
2023-04-23T13:02:05.065Z,0.60
2023-04-23T13:04:34.441Z,0.52
2023-04-23T13:07:02.789Z,0.63
2023-04-23T13:09:30.232Z,0.43
2023-04-23T13:11:57.410Z,0.35
2023-04-23T13:14:24.221Z,0.40
2023-04-23T13:16:53.258Z,0.40
2023-04-23T13:19:19.966Z,0.30
2023-04-23T13:21:48.976Z,0.60
2023-04-23T13:24:16.117Z,0.40
2023-04-23T13:26:44.512Z,0.40
2023-04-23T13:29:11.946Z,0.43
2023-04-23T13:31:40.997Z,0.40
2023-04-23T13:34:08.264Z,0.50
2023-04-23T13:36:38.014Z,0.30
2023-04-23T13:39:07.592Z,0.33
2023-04-23T13:41:34.764Z,0.30
2023-04-23T13:44:02.850Z,0.40
2023-04-23T13:46:29.872Z,0.30
2023-04-23T13:49:01.617Z,0.30
2023-04-23T13:51:35.738Z,0.40
2023-04-23T13:54:03.404Z,0.40
2023-04-23T13:56:31.127Z,0.30
2023-04-23T13:59:18.347Z,0.30
2023-04-23T14:01:49.625Z,0.40
2023-04-23T14:04:17.631Z,0.45
2023-04-23T14:06:44.770Z,0.20
2023-04-23T14:09:12.032Z,0.40
2023-04-23T14:11:43.021Z,0.50
2023-04-23T14:14:09.869Z,0.40
2023-04-23T14:16:36.659Z,0.30
2023-04-23T14:19:03.388Z,0.30
2023-04-23T14:21:31.997Z,0.50
2023-04-23T14:24:11.026Z,0.32
2023-04-23T14:26:49.314Z,0.43
2023-04-23T14:29:42.650Z,0.40
2023-04-23T14:32:11.548Z,0.45
2023-04-23T14:34:38.712Z,0.50
2023-04-23T14:37:06.581Z,0.30
2023-04-23T14:39:34.266Z,0.30
2023-04-23T14:42:06.183Z,0.32
2023-04-23T14:44:34.162Z,0.30
2023-04-23T14:47:01.001Z,0.30
2023-04-23T14:49:27.753Z,0.50
2023-04-23T14:51:55.010Z,0.32
2023-04-23T14:54:22.285Z,0.30
2023-04-23T14:56:49.357Z,0.40
2023-04-23T14:59:19.340Z,0.47
2023-04-23T15:01:46.163Z,0.30
2023-04-23T15:04:13.161Z,0.30
2023-04-23T15:06:42.632Z,0.40
2023-04-23T15:09:11.012Z,0.30
2023-04-23T15:11:38.830Z,0.43
2023-04-23T15:14:19.045Z,0.30
2023-04-23T15:16:49.396Z,0.30
2023-04-23T15:19:18.388Z,0.30
2023-04-23T15:21:46.334Z,0.50
2023-04-23T15:24:13.369Z,0.57
2023-04-23T15:26:42.151Z,0.32
2023-04-23T15:29:09.924Z,0.30
2023-04-23T15:31:40.663Z,0.40
2023-04-23T15:34:08.936Z,0.40
2023-04-23T15:36:44.969Z,0.38
2023-04-23T15:39:11.606Z,0.30
2023-04-23T15:41:46.375Z,0.50
2023-04-23T15:44:13.336Z,0.40
2023-04-23T15:46:40.478Z,0.40
2023-04-23T15:49:08.386Z,0.27
2023-04-23T15:51:35.524Z,0.45
2023-04-23T15:54:02.825Z,0.38
2023-04-23T15:56:31.859Z,0.40
2023-04-23T15:59:00.610Z,0.52
2023-04-23T16:01:30.725Z,0.40
2023-04-23T16:06:27.234Z,0.30
2023-04-23T16:08:53.900Z,0.40
2023-04-23T16:11:21.536Z,0.40
2023-04-23T16:13:49.870Z,0.40
2023-04-23T16:16:16.563Z,0.20
2023-04-23T16:18:45.095Z,0.30
2023-04-23T16:21:11.736Z,0.20
2023-04-23T16:23:38.523Z,0.43
2023-04-23T16:26:08.627Z,0.40
2023-04-23T16:28:35.596Z,0.10
2023-04-23T16:31:08.811Z,0.30
2023-04-23T16:33:35.547Z,0.40
2023-04-23T16:36:03.143Z,0.50
2023-04-23T16:38:30.193Z,0.30
2023-04-23T16:40:57.057Z,0.30
2023-04-23T16:46:15.737Z,0.20
2023-04-23T16:48:43.934Z,0.20
2023-04-23T16:51:10.972Z,0.30
2023-04-23T16:53:42.782Z,0.40
2023-04-23T16:56:12.726Z,0.30
2023-04-23T16:58:39.649Z,0.20
2023-04-23T17:01:07.697Z,0.20
2023-04-23T17:03:38.532Z,0.20
2023-04-23T17:06:37.356Z,0.30
2023-04-23T17:09:08.765Z,0.50
2023-04-23T17:11:38.293Z,0.70
2023-04-23T17:14:10.744Z,0.40
2023-04-23T17:16:37.460Z,0.30
2023-04-23T17:19:07.228Z,0.40
2023-04-23T17:21:34.327Z,0.30
2023-04-23T17:24:02.391Z,0.23
2023-04-23T17:26:29.424Z,0.30
2023-04-23T17:28:56.619Z,0.20
2023-04-23T17:31:23.610Z,0.10
2023-04-23T17:33:53.098Z,0.40
2023-04-23T17:36:20.039Z,0.20
2023-04-23T17:38:51.484Z,0.20
2023-04-23T17:41:22.869Z,0.30
2023-04-23T17:43:50.397Z,0.20
2023-04-23T17:46:22.796Z,0.30
2023-04-23T17:48:49.575Z,0.20
2023-04-23T17:51:20.017Z,0.20
2023-04-23T17:53:50.687Z,0.22
2023-04-23T17:56:17.543Z,0.20
2023-04-23T17:58:45.345Z,0.20
2023-04-23T18:01:15.835Z,0.30
2023-04-23T18:03:42.775Z,0.15
2023-04-23T18:06:09.640Z,0.38
2023-04-23T18:08:38.379Z,0.28
2023-04-23T18:11:08.290Z,0.20
2023-04-23T18:13:36.401Z,0.20
2023-04-23T18:16:08.968Z,0.10
2023-04-23T18:18:40.770Z,0.20
2023-04-23T18:21:07.482Z,0.10
2023-04-23T18:23:38.919Z,0.20
2023-04-23T18:26:05.963Z,0.10
2023-04-23T18:28:37.155Z,0.10
2023-04-23T18:31:04.360Z,0.20
2023-04-23T18:33:55.682Z,0.30
2023-04-23T18:36:33.703Z,0.20
2023-04-23T18:39:00.501Z,0.20
2023-04-23T18:41:38.300Z,0.20
2023-04-23T18:44:06.458Z,0.20
2023-04-23T18:46:33.428Z,0.20
2023-04-23T18:49:27.277Z,0.20
2023-04-23T18:51:57.437Z,0.30
2023-04-23T18:54:26.942Z,0.10
2023-04-23T18:56:54.032Z,0.10
2023-04-23T18:59:20.792Z,0.20
2023-04-23T19:01:48.242Z,0.30
2023-04-23T19:04:18.581Z,0.20
2023-04-23T19:06:45.428Z,0.25
2023-04-23T19:09:18.233Z,0.20
2023-04-23T19:11:45.159Z,0.20
2023-04-23T19:14:12.876Z,0.50
2023-04-23T19:16:39.874Z,0.20
2023-04-23T19:19:10.005Z,0.10
2023-04-23T19:21:36.746Z,0.20
2023-04-23T19:24:05.424Z,0.20
2023-04-23T19:26:32.093Z,0.20
2023-04-23T19:29:04.335Z,0.30
2023-04-23T19:31:31.145Z,0.13
2023-04-23T19:33:58.027Z,0.30
2023-04-23T19:36:27.508Z,0.22
2023-04-23T19:38:54.405Z,0.40
2023-04-23T19:41:26.794Z,0.20
2023-04-23T19:43:57.447Z,0.20
2023-04-23T19:46:24.635Z,0.30
2023-04-23T19:48:52.464Z,0.40
2023-04-23T19:51:22.391Z,0.30
2023-04-23T19:53:49.077Z,0.25
2023-04-23T19:56:16.750Z,0.10
2023-04-23T19:58:43.436Z,0.25
2023-04-23T20:01:13.486Z,0.40
2023-04-23T20:03:40.727Z,0.30
2023-04-23T20:06:08.382Z,0.20
2023-04-23T20:08:58.272Z,0.47
2023-04-23T20:11:25.327Z,0.28
2023-04-23T20:16:43.596Z,0.30
2023-04-23T20:19:12.229Z,0.40
2023-04-23T20:21:39.786Z,0.15
2023-04-23T20:24:11.254Z,0.40
2023-04-23T20:26:41.254Z,0.30
2023-04-23T20:29:08.093Z,0.23
2023-04-23T20:31:35.814Z,0.30
2023-04-23T20:34:02.949Z,0.40
2023-04-23T20:36:31.470Z,0.30
2023-04-23T20:38:59.907Z,0.20
2023-04-23T20:41:30.967Z,0.20
2023-04-23T20:43:59.049Z,0.10
2023-04-23T20:46:30.058Z,0.20
2023-04-23T20:49:01.912Z,0.30
2023-04-23T20:51:28.920Z,0.20
2023-04-23T20:54:01.001Z,0.28
2023-04-23T20:56:29.770Z,0.30
2023-04-23T20:59:01.918Z,0.13
2023-04-23T21:01:34.663Z,0.20
2023-04-23T21:04:02.111Z,0.20
2023-04-23T21:06:35.296Z,0.28
2023-04-23T21:09:02.729Z,0.50
2023-04-23T21:11:31.255Z,0.35
2023-04-23T21:14:00.776Z,0.45
2023-04-23T21:16:31.837Z,0.25
2023-04-23T21:18:58.489Z,0.30
2023-04-23T21:21:31.409Z,0.30
2023-04-23T21:24:01.263Z,0.38
2023-04-23T21:26:32.173Z,0.38
2023-04-23T21:28:58.952Z,0.40
2023-04-23T21:31:37.130Z,0.30
2023-04-23T21:34:03.902Z,0.40
2023-04-23T21:36:35.757Z,0.43
2023-04-23T21:39:04.004Z,0.20
2023-04-23T21:41:30.754Z,0.20
2023-04-23T21:43:57.757Z,0.20
2023-04-23T21:46:25.042Z,0.30
2023-04-23T21:51:48.899Z,0.60
2023-04-23T21:54:15.645Z,0.30
2023-04-23T21:56:42.365Z,0.20
2023-04-23T21:59:15.921Z,0.30
2023-04-23T22:01:42.627Z,1.00
2023-04-23T22:04:10.350Z,0.40
2023-04-23T22:06:37.462Z,0.20
2023-04-23T22:12:02.159Z,0.20
2023-04-23T22:14:33.487Z,0.20
2023-04-23T22:17:01.982Z,0.30
2023-04-23T22:22:25.862Z,0.20
2023-04-23T22:24:52.535Z,0.20
2023-04-23T22:27:19.494Z,0.20
2023-04-23T22:32:39.456Z,0.20
2023-04-23T22:35:08.426Z,0.50
2023-04-23T22:37:35.701Z,0.20
2023-04-23T22:40:07.744Z,0.20
2023-04-23T22:42:36.346Z,0.20
2023-04-23T22:45:03.138Z,0.20
2023-04-23T22:47:29.836Z,0.10
2023-04-23T22:49:59.057Z,0.30
2023-04-23T22:52:26.931Z,0.60
2023-04-23T22:54:57.146Z,0.10
2023-04-23T22:57:24.968Z,0.20
2023-04-23T22:59:56.963Z,0.13
2023-04-23T23:02:27.946Z,0.75
2023-04-23T23:04:54.858Z,0.10
2023-04-23T23:07:25.797Z,0.30
2023-04-23T23:12:46.520Z,0.20
2023-04-23T23:15:13.319Z,0.20
2023-04-23T23:17:44.477Z,0.30
2023-04-23T23:20:11.958Z,0.15
2023-04-23T23:22:38.720Z,0.22
2023-04-23T23:25:07.580Z,0.22
2023-04-23T23:27:34.347Z,0.20
2023-04-23T23:30:07.369Z,0.20
2023-04-23T23:32:34.165Z,0.20
2023-04-23T23:40:48.079Z,0.10
2023-04-23T23:43:14.696Z,0.23
2023-04-23T23:48:31.969Z,0.17
2023-04-23T23:51:04.597Z,0.20
2023-04-23T23:53:31.246Z,0.30
2023-04-23T23:55:58.112Z,0.28
2023-04-23T23:58:24.765Z,0.35
